Time;durP1;ratioP1;P1;durP2;ratioP2;P2;SDS_P1;SDS_P2;PMS_P1;PMS_P2;Temp;Humidity;BMP_temperature;BMP_pressure;BME280_temperature;BME280_humidity;BME280_pressure;Samples;Min_cycle;Max_cycle;Signal;HPM_P1;HPM_P2
2023/10/03 00:01:40;;;;;;;13.13;5.97;;;23.60;85.40;;;;;;7376449;19;20046;-77
2023/10/03 00:04:10;;;;;;;15.35;5.75;;;23.60;85.50;;;;;;7380417;19;20002;-78
2023/10/03 00:06:41;;;;;;;12.20;5.90;;;23.70;86.50;;;;;;7376257;19;20011;-78
2023/10/03 00:09:10;;;;;;;15.57;6.03;;;23.70;85.60;;;;;;7405092;19;20007;-78
2023/10/03 00:11:39;;;;;;;14.70;5.93;;;23.60;85.80;;;;;;7377657;19;20031;-78
2023/10/03 00:14:11;;;;;;;14.45;6.15;;;23.70;85.70;;;;;;7378843;19;20024;-78
2023/10/03 00:16:40;;;;;;;13.02;6.00;;;23.60;85.90;;;;;;7377503;19;20127;-78
2023/10/03 00:19:21;;;;;;;12.38;5.72;;;23.60;86.30;;;;;;7376569;19;20005;-78
2023/10/03 00:21:49;;;;;;;16.20;6.03;;;23.60;86.50;;;;;;7376076;19;20031;-77
2023/10/03 00:24:18;;;;;;;22.02;6.10;;;23.60;86.40;;;;;;7398250;19;20010;-78
2023/10/03 00:26:47;;;;;;;20.33;6.25;;;23.60;86.40;;;;;;7377791;19;20011;-78
2023/10/03 00:29:23;;;;;;;12.38;5.95;;;23.50;86.60;;;;;;7378316;19;20469;-77
2023/10/03 00:31:52;;;;;;;12.13;6.07;;;23.60;86.70;;;;;;7377334;19;20071;-77
2023/10/03 00:34:23;;;;;;;12.48;6.05;;;23.50;87.00;;;;;;7381441;19;20383;-78
2023/10/03 00:36:54;;;;;;;15.02;5.80;;;23.60;87.20;;;;;;7383114;19;20010;-77
2023/10/03 00:39:23;;;;;;;11.57;6.25;;;23.60;87.20;;;;;;7404688;19;20007;-77
2023/10/03 00:41:51;;;;;;;12.90;5.75;;;23.60;87.30;;;;;;7386086;19;20003;-77
2023/10/03 00:44:25;;;;;;;13.40;6.07;;;23.60;87.40;;;;;;7383792;19;20278;-79
2023/10/03 00:46:54;;;;;;;11.93;6.10;;;23.60;87.40;;;;;;7387908;19;20235;-79
2023/10/03 00:49:24;;;;;;;13.20;5.85;;;23.50;87.90;;;;;;7393855;19;20011;-78
2023/10/03 00:51:53;;;;;;;12.23;5.60;;;23.40;88.10;;;;;;7386201;19;20039;-79
2023/10/03 00:54:22;;;;;;;16.90;6.55;;;23.30;88.70;;;;;;7403252;19;20358;-79
2023/10/03 00:56:51;;;;;;;12.43;5.85;;;23.30;89.00;;;;;;7382461;19;20002;-78
2023/10/03 00:59:20;;;;;;;14.82;6.47;;;23.30;89.10;;;;;;7387017;19;20011;-78
2023/10/03 01:01:58;;;;;;;13.70;5.97;;;23.10;89.50;;;;;;7386675;19;20023;-79
2023/10/03 01:04:34;;;;;;;15.15;6.22;;;23.20;89.60;;;;;;7386748;19;20027;-79
2023/10/03 01:07:03;;;;;;;15.48;6.35;;;23.30;89.80;;;;;;7384573;19;20592;-78
2023/10/03 01:09:33;;;;;;;12.75;6.28;;;23.20;89.90;;;;;;7389063;19;20042;-78
2023/10/03 01:12:02;;;;;;;16.75;6.70;;;23.30;89.80;;;;;;7406858;19;20063;-78
2023/10/03 01:14:36;;;;;;;15.13;6.40;;;23.30;89.70;;;;;;7383984;19;20010;-79
2023/10/03 01:17:09;;;;;;;12.40;6.25;;;23.30;90.00;;;;;;7384307;19;20003;-78
2023/10/03 01:19:40;;;;;;;13.63;7.25;;;23.30;90.50;;;;;;7383024;19;20095;-78
2023/10/03 01:22:11;;;;;;;13.05;6.57;;;23.30;90.10;;;;;;7382456;19;20431;-78
2023/10/03 01:24:43;;;;;;;10.70;6.78;;;23.20;90.40;;;;;;7380606;19;20066;-77
2023/10/03 01:27:11;;;;;;;16.55;6.70;;;23.20;90.40;;;;;;7405482;19;20015;-79
2023/10/03 01:29:40;;;;;;;13.25;6.50;;;23.20;90.40;;;;;;7383501;19;20297;-79
2023/10/03 01:32:09;;;;;;;13.18;7.00;;;23.20;90.50;;;;;;7393549;19;20014;-77
2023/10/03 01:34:38;;;;;;;12.98;7.30;;;23.10;90.70;;;;;;7400827;19;20014;-78
2023/10/03 01:37:06;;;;;;;16.67;6.50;;;23.10;90.80;;;;;;7401634;19;20010;-77
2023/10/03 01:39:35;;;;;;;12.45;6.93;;;23.00;91.20;;;;;;7399376;19;20007;-77
2023/10/03 01:42:06;;;;;;;15.05;6.40;;;23.00;91.30;;;;;;7420847;19;20007;-77
2023/10/03 01:44:36;;;;;;;19.98;7.22;;;23.10;91.30;;;;;;7382250;19;20083;-78
2023/10/03 01:47:07;;;;;;;16.65;7.75;;;23.00;91.50;;;;;;7382794;19;20011;-77
2023/10/03 01:49:38;;;;;;;14.20;7.63;;;23.00;91.70;;;;;;7384502;19;20023;-78
2023/10/03 01:52:07;;;;;;;17.02;7.70;;;22.80;92.00;;;;;;7383547;19;20025;-79
2023/10/03 01:54:36;;;;;;;17.77;8.43;;;22.90;92.20;;;;;;7383685;19;20024;-78
2023/10/03 01:57:07;;;;;;;15.50;8.50;;;22.90;92.40;;;;;;7401768;19;20015;-76
2023/10/03 01:59:38;;;;;;;23.88;8.60;;;22.90;92.60;;;;;;7378515;19;20012;-77
2023/10/03 02:02:06;;;;;;;21.90;8.82;;;22.90;92.70;;;;;;7381090;19;20025;-77
2023/10/03 02:04:35;;;;;;;22.80;9.00;;;22.90;92.80;;;;;;7378071;19;19999;-76
2023/10/03 02:07:05;;;;;;;17.73;9.32;;;22.90;92.80;;;;;;7379037;19;20283;-76
2023/10/03 02:09:34;;;;;;;23.40;9.93;;;23.00;92.90;;;;;;7379094;19;20015;-76
2023/10/03 02:12:04;;;;;;;21.02;9.60;;;22.90;92.90;;;;;;7401350;19;20127;-77
2023/10/03 02:14:35;;;;;;;17.50;9.05;;;22.80;93.30;;;;;;7378347;19;20002;-77
2023/10/03 02:17:05;;;;;;;;;;;22.80;93.40;;;;;;7379678;19;20031;-77
2023/10/03 02:19:34;;;;;;;19.90;9.85;;;22.80;93.40;;;;;;7379264;19;19982;-77
2023/10/03 02:22:04;;;;;;;17.23;9.43;;;22.70;93.50;;;;;;7379148;19;20515;-77
2023/10/03 02:24:33;;;;;;;19.05;8.98;;;22.80;93.40;;;;;;7382881;19;20007;-76
2023/10/03 02:27:05;;;;;;;19.67;9.45;;;22.70;93.50;;;;;;7399315;19;20020;-76
2023/10/03 02:29:38;;;;;;;27.70;10.02;;;22.90;93.50;;;;;;7378289;19;20003;-76
2023/10/03 02:32:08;;;;;;;21.83;9.65;;;22.80;93.50;;;;;;7377896;19;20031;-77
2023/10/03 02:34:39;;;;;;;20.45;9.93;;;22.90;93.40;;;;;;7378601;19;20011;-76
2023/10/03 02:37:08;;;;;;;;;;;22.90;93.30;;;;;;7378099;19;20002;-77
2023/10/03 02:39:39;;;;;;;21.20;9.13;;;22.90;93.30;;;;;;7377889;19;20115;-75
2023/10/03 02:42:09;;;;;;;23.63;8.55;;;22.90;93.10;;;;;;7403790;19;20413;-76
2023/10/03 02:44:40;;;;;;;17.23;8.30;;;23.00;93.20;;;;;;7377074;19;20035;-76
2023/10/03 02:47:09;;;;;;;;;;;22.80;93.30;;;;;;7378432;19;20634;-76
2023/10/03 02:49:38;;;;;;;17.77;8.98;;;22.70;93.30;;;;;;7377757;19;20283;-76
2023/10/03 02:52:07;;;;;;;17.33;9.30;;;22.80;93.20;;;;;;7378200;19;20010;-76
2023/10/03 02:54:36;;;;;;;17.27;8.70;;;22.70;93.30;;;;;;7375778;19;20354;-76
2023/10/03 02:57:04;;;;;;;16.23;8.75;;;22.80;93.30;;;;;;7395594;19;20006;-76
2023/10/03 02:59:33;;;;;;;19.45;8.60;;;22.80;93.20;;;;;;7376887;19;20010;-74
2023/10/03 03:02:05;;;;;;;22.23;8.95;;;22.90;93.10;;;;;;7379171;19;20023;-75
2023/10/03 03:04:36;;;;;;;22.38;9.63;;;22.90;93.00;;;;;;7378209;19;20003;-75
2023/10/03 03:07:05;;;;;;;;;;;23.00;92.90;;;;;;7377006;19;20035;-74
2023/10/03 03:09:36;;;;;;;15.00;8.80;;;23.00;92.90;;;;;;7376661;19;19914;-75
2023/10/03 03:12:06;;;;;;;21.92;9.45;;;23.00;92.80;;;;;;7398557;19;20251;-74
2023/10/03 03:14:36;;;;;;;18.65;9.13;;;23.00;92.80;;;;;;7378059;19;20009;-75
2023/10/03 03:17:13;;;;;;;18.15;8.85;;;22.90;92.90;;;;;;7376192;19;20100;-75
2023/10/03 03:19:44;;;;;;;20.95;9.10;;;22.90;93.00;;;;;;7376597;19;20003;-75
2023/10/03 03:22:15;;;;;;;;;;;22.90;92.90;;;;;;7377613;19;20031;-75
2023/10/03 03:24:51;;;;;;;17.00;8.30;;;23.00;92.80;;;;;;7377469;19;19915;-75
2023/10/03 03:27:25;;;;;;;20.77;8.02;;;22.90;92.70;;;;;;7396525;19;20284;-75
2023/10/03 03:30:22;;;;;;;16.08;8.00;;;22.90;92.70;;;;;;7375543;19;20263;-74
2023/10/03 03:32:51;;;;;;;14.68;8.18;;;22.90;92.80;;;;;;7379718;19;20003;-75
2023/10/03 03:35:24;;;;;;;;;;;23.00;92.70;;;;;;7375733;19;20010;-75
2023/10/03 03:37:56;;;;;;;22.98;8.70;;;23.00;92.60;;;;;;7376016;19;20231;-76
2023/10/03 03:40:29;;;;;;;14.38;7.72;;;23.00;92.50;;;;;;7377105;19;20037;-75
2023/10/03 03:43:00;;;;;;;16.15;8.57;;;23.00;92.50;;;;;;7377143;19;20364;-76
2023/10/03 03:45:30;;;;;;;15.55;8.73;;;23.00;92.50;;;;;;7384728;19;20018;-76
2023/10/03 03:48:01;;;;;;;20.70;8.40;;;22.90;92.60;;;;;;7397880;19;20006;-78
2023/10/03 03:50:31;;;;;;;18.08;8.40;;;22.80;92.80;;;;;;7375466;19;20006;-76
2023/10/03 03:53:02;;;;;;;16.42;8.63;;;22.90;92.90;;;;;;7375450;19;20493;-76
2023/10/03 03:55:31;;;;;;;;;;;22.90;92.90;;;;;;7376310;19;20031;-76
2023/10/03 03:58:01;;;;;;;19.23;8.23;;;22.90;92.90;;;;;;7374670;19;19914;-76
2023/10/03 04:00:32;;;;;;;19.73;8.07;;;22.90;92.80;;;;;;7375701;19;20007;-77
2023/10/03 04:03:07;;;;;;;;;;;22.90;92.70;;;;;;7401053;19;20006;-75
2023/10/03 04:05:36;;;;;;;14.32;7.45;;;22.90;92.70;;;;;;7375559;19;19911;-75
2023/10/03 04:08:08;;;;;;;22.10;7.38;;;22.90;92.70;;;;;;7379804;19;20002;-75
2023/10/03 04:10:37;;;;;;;15.73;7.30;;;22.80;92.70;;;;;;7381651;19;20013;-75
2023/10/03 04:13:10;;;;;;;15.43;7.18;;;22.60;92.80;;;;;;7383376;19;20010;-75
2023/10/03 04:15:43;;;;;;;15.32;7.55;;;22.70;92.80;;;;;;7383111;19;20006;-74
2023/10/03 04:18:15;;;;;;;14.15;6.72;;;22.60;92.80;;;;;;7402989;19;20031;-76
2023/10/03 04:20:46;;;;;;;13.38;6.78;;;22.70;92.80;;;;;;7381771;19;20385;-75
2023/10/03 04:23:15;;;;;;;16.88;6.70;;;22.70;92.80;;;;;;7385345;19;20069;-76
2023/10/03 04:25:44;;;;;;;14.68;7.13;;;22.80;92.80;;;;;;7382262;19;20006;-75
2023/10/03 04:28:16;;;;;;;9.85;5.82;;;22.70;92.70;;;;;;7381944;19;20025;-75
2023/10/03 04:30:45;;;;;;;15.10;6.47;;;22.80;92.70;;;;;;7382964;19;20013;-75
2023/10/03 04:33:20;;;;;;;13.07;5.90;;;22.50;92.70;;;;;;7403916;19;20027;-75
2023/10/03 04:35:50;;;;;;;15.60;6.95;;;22.60;92.80;;;;;;7381518;19;20235;-76
2023/10/03 04:38:18;;;;;;;11.93;6.00;;;22.70;92.70;;;;;;7380553;19;20025;-75
2023/10/03 04:40:47;;;;;;;12.18;6.22;;;22.70;92.70;;;;;;7383312;19;20007;-75
2023/10/03 04:43:17;;;;;;;8.52;5.43;;;22.60;92.70;;;;;;7382237;19;20113;-74
2023/10/03 04:45:46;;;;;;;11.60;6.13;;;22.50;92.70;;;;;;7382073;19;20031;-74
2023/10/03 04:48:17;;;;;;;14.10;6.35;;;22.40;93.00;;;;;;7402974;19;20031;-75
2023/10/03 04:50:46;;;;;;;;;;;22.40;92.90;;;;;;7381471;19;20020;-74
2023/10/03 04:53:15;;;;;;;9.70;5.40;;;22.50;92.90;;;;;;7380636;19;19921;-76
2023/10/03 04:55:47;;;;;;;10.05;5.35;;;22.50;92.80;;;;;;7380669;19;20006;-75
2023/10/03 04:58:15;;;;;;;16.52;6.22;;;22.60;92.70;;;;;;7379582;19;20012;-76
2023/10/03 05:00:45;;;;;;;9.32;5.60;;;22.50;92.90;;;;;;7381715;19;20094;-75
2023/10/03 05:03:19;;;;;;;10.65;5.63;;;22.50;92.90;;;;;;7402402;19;20023;-75
2023/10/03 05:05:48;;;;;;;15.95;5.97;;;22.50;92.80;;;;;;7379051;19;20014;-75
2023/10/03 05:08:18;;;;;;;13.07;6.60;;;22.60;92.80;;;;;;7380581;19;20070;-76
2023/10/03 05:10:47;;;;;;;15.13;6.40;;;22.70;92.90;;;;;;7380947;19;20058;-75
2023/10/03 05:13:16;;;;;;;16.25;6.68;;;22.70;92.80;;;;;;7381485;19;20441;-75
2023/10/03 05:15:45;;;;;;;13.27;5.85;;;22.60;92.90;;;;;;7378991;19;20014;-75
2023/10/03 05:18:16;;;;;;;10.18;6.22;;;22.60;93.00;;;;;;7401357;19;20082;-75
2023/10/03 05:20:45;;;;;;;;;;;22.60;93.00;;;;;;7379934;19;20048;-76
2023/10/03 05:23:15;;;;;;;12.63;5.50;;;22.60;93.00;;;;;;7380173;19;19942;-75
2023/10/03 05:25:44;;;;;;;12.95;6.00;;;22.60;92.90;;;;;;7380036;19;20391;-75
2023/10/03 05:28:13;;;;;;;12.45;5.65;;;22.60;93.00;;;;;;7378991;19;20010;-75
2023/10/03 05:30:43;;;;;;;9.90;6.00;;;22.60;92.90;;;;;;7381870;19;20009;-75
2023/10/03 05:33:11;;;;;;;13.43;6.30;;;22.50;93.00;;;;;;7401679;19;20020;-76
2023/10/03 05:35:43;;;;;;;12.55;6.10;;;22.40;93.20;;;;;;7379587;19;20015;-75
2023/10/03 05:38:11;;;;;;;;;;;22.40;93.30;;;;;;7381864;19;20099;-76
2023/10/03 05:40:40;;;;;;;11.60;6.03;;;22.30;93.50;;;;;;7382556;19;19907;-77
2023/10/03 05:43:08;;;;;;;12.35;6.72;;;22.20;93.60;;;;;;7379518;19;20062;-76
2023/10/03 05:45:37;;;;;;;16.35;7.15;;;22.20;93.80;;;;;;7380670;19;20007;-77
2023/10/03 05:48:07;;;;;;;15.88;7.28;;;22.10;94.10;;;;;;7403487;19;20066;-77
2023/10/03 05:50:36;;;;;;;12.35;6.60;;;22.30;94.20;;;;;;7378864;19;20473;-77
2023/10/03 05:53:09;;;;;;;18.20;7.80;;;22.30;94.20;;;;;;7379315;19;20373;-77
2023/10/03 05:55:38;;;;;;;14.80;7.07;;;22.30;94.30;;;;;;7379705;19;20006;-77
2023/10/03 05:58:08;;;;;;;15.55;8.15;;;22.30;94.40;;;;;;7379903;19;20362;-78
2023/10/03 06:00:36;;;;;;;12.57;7.45;;;22.30;94.40;;;;;;7381305;19;20009;-77
2023/10/03 06:03:06;;;;;;;15.95;8.07;;;22.30;94.50;;;;;;7398582;19;20015;-77
2023/10/03 06:05:35;;;;;;;20.45;7.80;;;22.30;94.50;;;;;;7381140;19;20058;-77
2023/10/03 06:08:03;;;;;;;20.05;7.25;;;22.30;94.60;;;;;;7380606;19;20011;-77
2023/10/03 06:10:35;;;;;;;19.17;7.55;;;22.30;94.60;;;;;;7378270;19;20373;-77
2023/10/03 06:13:05;;;;;;;18.40;7.70;;;22.40;94.70;;;;;;7379753;19;20005;-78
2023/10/03 06:15:35;;;;;;;17.27;8.30;;;22.40;94.80;;;;;;7379147;19;20015;-78
2023/10/03 06:18:04;;;;;;;20.25;8.27;;;22.40;94.70;;;;;;7401135;19;20034;-77
2023/10/03 06:20:34;;;;;;;23.33;8.75;;;22.40;94.70;;;;;;7379086;19;20082;-77
2023/10/03 06:23:04;;;;;;;16.20;8.80;;;22.30;94.70;;;;;;7380591;19;20013;-78
2023/10/03 06:25:35;;;;;;;17.23;8.05;;;22.40;94.90;;;;;;7378396;19;20017;-77
2023/10/03 06:28:04;;;;;;;15.00;8.60;;;22.40;94.90;;;;;;7378594;19;20012;-76
2023/10/03 06:30:33;;;;;;;15.45;8.70;;;22.40;95.00;;;;;;7376597;19;20011;-77
2023/10/03 06:33:03;;;;;;;21.60;8.73;;;22.40;95.00;;;;;;7399361;19;20006;-77
2023/10/03 06:35:32;;;;;;;14.60;8.63;;;22.50;95.00;;;;;;7377900;19;20074;-76
2023/10/03 06:38:00;;;;;;;21.15;7.82;;;22.50;95.00;;;;;;7377214;19;20127;-77
2023/10/03 06:40:29;;;;;;;18.60;8.65;;;22.40;94.90;;;;;;7377814;19;20010;-77
2023/10/03 06:43:00;;;;;;;17.65;8.10;;;22.40;95.00;;;;;;7377933;19;20098;-77
2023/10/03 06:45:29;;;;;;;;;;;22.40;94.90;;;;;;7381809;19;20006;-76
2023/10/03 06:48:02;;;;;;;17.88;8.98;;;22.40;95.10;;;;;;7399663;19;19970;-77
2023/10/03 06:50:31;;;;;;;26.63;9.52;;;22.40;95.10;;;;;;7377087;19;20037;-77
2023/10/03 06:53:01;;;;;;;16.95;9.52;;;22.40;95.20;;;;;;7377692;19;20019;-76
2023/10/03 06:55:29;;;;;;;15.88;9.30;;;22.40;95.30;;;;;;7379191;19;20009;-77
2023/10/03 06:58:01;;;;;;;19.45;9.70;;;22.40;95.40;;;;;;7375726;19;20023;-77
2023/10/03 07:00:32;;;;;;;17.65;10.20;;;22.40;95.50;;;;;;7377630;19;20003;-77
2023/10/03 07:03:06;;;;;;;16.70;9.48;;;22.30;95.30;;;;;;7403916;19;20014;-77
2023/10/03 07:05:41;;;;;;;20.92;9.77;;;22.30;95.30;;;;;;7380886;19;20027;-80
2023/10/03 07:08:12;;;;;;;16.08;9.02;;;22.20;95.30;;;;;;7380065;19;20011;-80
2023/10/03 07:10:41;;;;;;;19.17;9.55;;;22.30;95.30;;;;;;7379727;19;20031;-77
2023/10/03 07:13:13;;;;;;;16.67;10.50;;;22.20;95.30;;;;;;7381972;19;20010;-78
2023/10/03 07:15:44;;;;;;;23.15;10.48;;;22.20;95.30;;;;;;7383896;19;20010;-81
2023/10/03 07:18:14;;;;;;;20.00;9.85;;;22.20;95.50;;;;;;7403592;19;20002;-78
2023/10/03 07:20:47;;;;;;;21.88;10.20;;;22.20;95.50;;;;;;7382771;19;20018;-77
2023/10/03 07:23:20;;;;;;;18.98;9.18;;;22.20;95.50;;;;;;7381604;19;20014;-81
2023/10/03 07:25:48;;;;;;;18.10;7.82;;;22.20;95.60;;;;;;7381409;19;20481;-78
2023/10/03 07:28:33;;;;;;;12.35;8.20;;;22.20;95.60;;;;;;7380586;19;20399;-82
2023/10/03 07:54:31;;;;;;;;;;;;;;;;;;;;;
2023/10/03 07:57:15;;;;;;;9.20;6.30;;;22.10;95.90;;;;;;7380087;19;20010;-81
2023/10/03 07:59:45;;;;;;;8.85;5.80;;;22.20;95.80;;;;;;7404613;19;20007;-82
2023/10/03 08:02:14;;;;;;;10.60;6.20;;;22.10;95.70;;;;;;7389401;19;20553;-80
2023/10/03 08:04:46;;;;;;;7.10;5.43;;;22.20;95.80;;;;;;7389168;19;20010;-80
2023/10/03 08:07:22;;;;;;;11.93;5.93;;;22.30;95.80;;;;;;7381287;19;20011;-80
2023/10/03 08:16:21;;;;;;;7.55;5.57;;;22.40;95.60;;;;;;7335355;19;20010;-79
2023/10/03 08:18:57;;;;;;;10.57;5.50;;;22.40;95.50;;;;;;7377137;19;20087;-78
2023/10/03 08:21:34;;;;;;;7.18;4.80;;;22.50;95.40;;;;;;7401533;19;20035;-80
2023/10/03 08:24:09;;;;;;;7.65;5.05;;;22.40;95.30;;;;;;7381907;19;20027;-79
2023/10/03 09:36:41;;;;;;;12.88;3.13;;;20.40;96.40;;;;;;7394808;19;20031;-81
2023/10/03 09:39:20;;;;;;;12.82;3.75;;;20.30;96.10;;;;;;7406784;19;20011;-81
2023/10/03 10:05:49;;;;;;;11.70;3.38;;;20.80;94.50;;;;;;7403025;19;20011;-83
2023/10/03 10:51:31;;;;;;;9.80;3.20;;;21.20;91.30;;;;;;7443626;19;20017;-80
2023/10/03 10:58:08;;;;;;;;;;;;;;;;;;;;;
2023/10/03 11:00:39;;;;;;;13.82;3.05;;;21.40;90.70;;;;;;7309891;19;2020504;-79
2023/10/03 11:03:10;;;;;;;8.37;3.47;;;21.40;90.60;;;;;;7434803;19;20066;-80
2023/10/03 11:05:51;;;;;;;7.68;2.80;;;21.40;90.70;;;;;;7410880;19;19999;-81
2023/10/03 11:08:25;;;;;;;9.75;3.22;;;21.20;90.90;;;;;;7411611;19;20057;-80
2023/10/03 11:11:09;;;;;;;11.57;3.38;;;21.40;91.10;;;;;;7413067;19;20077;-80
2023/10/03 11:13:59;;;;;;;11.52;3.20;;;21.20;91.20;;;;;;7413213;19;20023;-80
2023/10/03 11:16:34;;;;;;;9.32;3.17;;;21.30;91.00;;;;;;7411224;19;20006;-82
2023/10/03 11:19:07;;;;;;;8.25;3.33;;;21.10;91.20;;;;;;7413915;19;20006;-81
2023/10/03 11:21:36;;;;;;;7.47;3.35;;;21.20;91.10;;;;;;7411113;19;20010;-76
2023/10/03 11:27:36;;;;;;;11.93;3.20;;;21.10;91.40;;;;;;7382364;19;20070;-83
2023/10/03 11:30:19;;;;;;;7.45;3.58;;;21.20;90.80;;;;;;7381484;19;20007;-76
2023/10/03 11:32:48;;;;;;;10.05;3.20;;;21.20;90.90;;;;;;7378691;19;20010;-77
2023/10/03 11:38:09;;;;;;;13.18;3.72;;;21.70;90.40;;;;;;7396816;19;20010;-79
2023/10/03 11:40:44;;;;;;;9.77;3.35;;;21.80;89.30;;;;;;7401163;19;20034;-81
2023/10/03 11:43:23;;;;;;;8.57;3.10;;;21.70;87.30;;;;;;7402465;19;20027;-82
2023/10/03 11:46:00;;;;;;;11.88;3.00;;;21.60;87.90;;;;;;7400187;19;20007;-81
2023/10/03 11:48:33;;;;;;;13.90;4.05;;;21.60;88.20;;;;;;7399777;19;20007;-81
2023/10/03 11:51:02;;;;;;;7.78;3.13;;;21.60;88.50;;;;;;7409683;19;20465;-80
2023/10/03 11:53:31;;;;;;;11.20;3.45;;;21.50;86.50;;;;;;7386158;19;20014;-82
2023/10/03 11:56:02;;;;;;;9.45;3.22;;;21.40;87.30;;;;;;7387693;19;20094;-81
2023/10/03 11:58:33;;;;;;;;;;;21.70;87.20;;;;;;7387694;19;20003;-81
2023/10/03 12:01:02;;;;;;;7.72;2.90;;;21.80;86.50;;;;;;7387258;19;19906;-80
2023/10/03 12:03:30;;;;;;;13.77;3.28;;;21.60;86.70;;;;;;7390262;19;20019;-81
2023/10/03 12:05:59;;;;;;;6.57;3.13;;;21.70;87.30;;;;;;7405314;19;20024;-80
2023/10/03 12:08:29;;;;;;;9.18;3.55;;;21.50;86.30;;;;;;7383333;19;20019;-79
2023/10/03 12:10:58;;;;;;;6.85;3.05;;;21.40;87.10;;;;;;7383071;19;20002;-81
2023/10/03 12:13:27;;;;;;;18.55;4.32;;;21.40;87.70;;;;;;7381764;19;20002;-80
2023/10/03 12:15:59;;;;;;;10.82;3.28;;;21.60;87.20;;;;;;7385426;19;20013;-80
2023/10/03 12:18:32;;;;;;;11.75;3.60;;;21.70;86.10;;;;;;7403052;19;20003;-80
2023/10/03 12:21:08;;;;;;;8.52;3.33;;;21.70;85.00;;;;;;7410262;19;20006;-81
2023/10/03 12:23:36;;;;;;;10.27;3.15;;;21.50;83.50;;;;;;7388149;19;20009;-81
2023/10/03 12:27:02;;;;;;;;;;;;;;;;;;;;;
2023/10/03 12:29:55;;;;;;;8.13;3.08;;;21.50;83.00;;;;;;7389823;19;20221;-81
2023/10/03 12:32:29;;;;;;;8.80;3.05;;;21.50;83.00;;;;;;7363122;19;20003;-84
2023/10/03 12:35:00;;;;;;;14.82;3.75;;;21.40;83.90;;;;;;7406802;19;20022;-79
2023/10/03 12:37:29;;;;;;;8.65;3.28;;;21.40;84.00;;;;;;7383274;19;20068;-78
2023/10/03 12:40:01;;;;;;;11.40;3.70;;;21.40;85.10;;;;;;7380405;19;20035;-79
2023/10/03 12:42:31;;;;;;;7.35;3.22;;;21.60;84.70;;;;;;7380978;19;20025;-78
2023/10/03 12:45:01;;;;;;;13.52;3.83;;;21.80;83.60;;;;;;7408367;19;20018;-81
2023/10/03 12:50:19;;;;;;;9.60;3.30;;;22.00;82.30;;;;;;7386003;19;20288;-75
2023/10/03 12:52:48;;;;;;;10.38;3.45;;;22.00;82.20;;;;;;7381152;19;20011;-76
2023/10/03 12:55:18;;;;;;;8.48;3.17;;;22.00;83.10;;;;;;7380413;19;20020;-78
2023/10/03 12:57:48;;;;;;;7.97;3.10;;;21.70;83.90;;;;;;7381384;19;20003;-76
2023/10/03 13:00:19;;;;;;;10.13;3.67;;;21.60;85.50;;;;;;7397591;19;20002;-77
2023/10/03 13:02:51;;;;;;;10.35;3.55;;;21.40;85.80;;;;;;7382365;19;20006;-79
2023/10/03 13:05:21;;;;;;;10.13;3.35;;;21.50;85.80;;;;;;7377997;19;20074;-77
2023/10/03 13:07:50;;;;;;;10.32;3.30;;;21.40;85.10;;;;;;7379273;19;20686;-77
2023/10/03 13:10:23;;;;;;;5.80;1.85;;;21.20;85.10;;;;;;7378647;19;20002;-77
2023/10/03 13:12:55;;;;;;;3.55;1.67;;;20.90;80.20;;;;;;7380615;19;20010;-81
2023/10/03 13:18:18;;;;;;;4.35;1.75;;;21.00;81.00;;;;;;7388638;19;20023;-81
2023/10/03 13:21:02;;;;;;;8.90;1.83;;;21.20;80.10;;;;;;7387346;19;20031;-82
2023/10/03 13:23:33;;;;;;;4.18;1.52;;;21.30;79.10;;;;;;7384866;19;20014;-79
2023/10/03 13:26:08;;;;;;;4.25;1.80;;;21.50;79.40;;;;;;7381805;19;20024;-80
2023/10/03 13:28:37;;;;;;;13.32;2.13;;;21.60;79.80;;;;;;7380457;19;20042;-78
2023/10/03 13:31:06;;;;;;;3.60;1.67;;;21.70;79.40;;;;;;7380201;19;20007;-81
2023/10/03 13:33:38;;;;;;;4.13;1.70;;;21.70;79.70;;;;;;7383980;19;20030;-80
2023/10/03 13:36:14;;;;;;;5.10;2.00;;;21.60;79.30;;;;;;7402582;19;20050;-79
2023/10/03 13:52:09;;;;;;;8.90;3.00;;;22.20;79.30;;;;;;7314165;19;20006;-79
2023/10/03 14:04:25;;;;;;;5.10;2.33;;;22.60;78.10;;;;;;7385782;19;20022;-82
2023/10/03 14:07:17;;;;;;;8.55;2.88;;;22.70;76.60;;;;;;7406479;19;20015;-85
2023/10/03 14:09:53;;;;;;;5.50;2.42;;;22.80;76.10;;;;;;7379784;19;20007;-78
2023/10/03 14:12:28;;;;;;;4.90;2.63;;;22.80;76.40;;;;;;7402028;19;20007;-82
2023/10/03 14:14:57;;;;;;;5.38;2.65;;;22.90;76.00;;;;;;7379168;19;19995;-79
2023/10/03 14:17:44;;;;;;;9.77;2.75;;;22.60;73.70;;;;;;7384061;19;20014;-80
2023/10/03 14:20:13;;;;;;;6.25;2.70;;;22.70;73.30;;;;;;7382964;19;20015;-82
2023/10/03 14:22:45;;;;;;;5.10;2.15;;;22.70;72.60;;;;;;7382287;19;20007;-83
2023/10/03 14:25:14;;;;;;;8.20;2.88;;;22.70;73.90;;;;;;7383411;19;20006;-80
2023/10/03 14:27:47;;;;;;;8.25;2.30;;;22.50;73.30;;;;;;7380093;19;20285;-79
2023/10/03 14:30:28;;;;;;;5.50;2.78;;;22.20;74.00;;;;;;7405031;19;20227;-80
2023/10/03 15:01:27;;;;;;;6.95;2.25;;;21.30;76.10;;;;;;7311788;19;20119;31
2023/10/03 15:04:06;;;;;;;4.57;1.95;;;21.50;76.10;;;;;;7392149;19;20014;-77
2023/10/03 15:06:38;;;;;;;7.10;1.88;;;21.70;73.90;;;;;;7391540;19;20007;-81
2023/10/03 15:09:09;;;;;;;5.47;1.92;;;21.80;73.20;;;;;;7411205;19;20011;-80
2023/10/03 15:11:38;;;;;;;3.72;1.63;;;22.00;71.60;;;;;;7387335;19;20011;-77
2023/10/03 15:14:08;;;;;;;5.78;1.63;;;22.10;69.20;;;;;;7385841;19;20006;-80
2023/10/03 15:31:31;;;;;;;2.72;1.58;;;21.90;67.40;;;;;;7396093;19;20054;-78
2023/10/03 15:34:06;;;;;;;4.53;1.52;;;21.90;68.20;;;;;;7404942;19;20006;-79
2023/10/03 15:36:37;;;;;;;5.18;1.73;;;22.20;68.00;;;;;;7404262;19;20015;-80
2023/10/03 15:56:00;;;;;;;;;;;22.70;66.90;;;;;;7333417;19;20227;-80
2023/10/03 17:11:30;;;;;;;;;;;;;;;;;;;;;
2023/10/03 18:42:54;;;;;;;13.93;2.63;;;20.10;80.30;;;;;;7417599;19;20365;-80
2023/10/03 18:46:12;;;;;;;;;;;;;;;;;;;;;
2023/10/03 18:48:58;;;;;;;7.50;2.28;;;19.90;81.10;;;;;;7315680;19;2020655;-82
2023/10/03 18:51:35;;;;;;;5.97;2.13;;;19.90;81.00;;;;;;7438737;19;20271;-81
2023/10/03 18:54:09;;;;;;;7.97;2.08;;;19.70;81.10;;;;;;7418194;19;20109;-82
2023/10/03 18:59:54;;;;;;;12.98;2.22;;;19.70;81.30;;;;;;7418832;19;20650;-82
2023/10/03 19:02:34;;;;;;;8.38;2.35;;;19.70;81.40;;;;;;7420129;19;20013;-80
2023/10/03 19:12:30;;;;;;;5.57;1.83;;;19.50;82.30;;;;;;7415501;19;20073;-82
2023/10/03 19:15:50;;;;;;;6.63;1.60;;;19.50;82.50;;;;;;7396995;19;20363;-81
2023/10/03 19:21:22;;;;;;;;;;;;;;;;;;;;;
2023/10/03 19:24:51;;;;;;;6.97;2.10;;;19.50;82.10;;;;;;7420639;19;19918;-83
2023/10/03 19:27:35;;;;;;;8.55;2.40;;;19.50;82.40;;;;;;7417072;19;20071;-82
2023/10/03 19:30:16;;;;;;;7.45;2.30;;;19.50;82.50;;;;;;7416206;19;20018;-81
2023/10/03 19:32:59;;;;;;;10.68;2.42;;;19.40;82.80;;;;;;7422319;19;20009;-83
2023/10/03 19:36:16;;;;;;;9.73;1.92;;;19.30;83.30;;;;;;7424549;19;20006;-81
2023/10/03 19:39:30;;;;;;;10.52;2.63;;;19.30;83.30;;;;;;7427328;19;20078;-82
2023/10/03 19:57:01;;;;;;;;;;;;;;;;;;;;;
2023/10/03 20:02:53;;;;;;;8.80;2.67;;;19.00;84.30;;;;;;7421344;19;20065;-80
2023/10/03 20:05:22;;;;;;;;;;;19.00;84.40;;;;;;7428051;19;20006;-80
2023/10/03 20:07:51;;;;;;;22.35;3.08;;;19.10;84.50;;;;;;7420961;19;19936;-80
2023/10/03 20:10:20;;;;;;;4.63;2.30;;;19.10;84.30;;;;;;7419787;19;20125;-80
2023/10/03 20:16:09;;;;;;;;;;;;;;;;;;;;;
2023/10/03 20:18:59;;;;;;;10.50;2.90;;;18.90;84.60;;;;;;7422559;19;20044;-81
2023/10/03 20:21:36;;;;;;;11.88;3.70;;;18.80;84.80;;;;;;7444047;19;20374;-81
2023/10/03 20:24:23;;;;;;;10.10;3.15;;;18.80;84.80;;;;;;7421866;19;20006;-80
2023/10/03 20:26:56;;;;;;;9.13;3.60;;;18.80;84.70;;;;;;7421463;19;20013;-80
2023/10/03 20:29:44;;;;;;;9.30;3.25;;;18.80;84.60;;;;;;7417404;19;20010;-80
2023/10/03 20:32:30;;;;;;;9.70;2.88;;;18.80;84.80;;;;;;7420426;19;20002;-80
2023/10/03 20:35:16;;;;;;;10.43;2.90;;;18.80;84.60;;;;;;7418445;19;20010;-82
2023/10/03 20:37:47;;;;;;;10.70;3.00;;;18.80;84.80;;;;;;7422230;19;20006;-80
2023/10/03 20:40:16;;;;;;;6.82;3.00;;;18.80;84.70;;;;;;7418126;19;20024;-81
2023/10/03 20:42:49;;;;;;;8.70;3.10;;;18.80;84.90;;;;;;7416540;19;20078;-79
2023/10/03 20:45:26;;;;;;;14.32;3.65;;;18.80;84.80;;;;;;7439657;19;20070;-80
2023/10/03 20:48:08;;;;;;;12.23;3.50;;;18.80;84.70;;;;;;7420929;19;20020;-82
2023/10/03 20:51:03;;;;;;;;;;;;;;;;;;;;;
2023/10/03 20:54:08;;;;;;;12.57;3.15;;;18.90;84.80;;;;;;7421240;19;20014;-81
2023/10/03 20:56:45;;;;;;;20.65;3.08;;;18.90;84.40;;;;;;7399295;19;20014;-80
2023/10/03 20:59:31;;;;;;;12.98;3.22;;;18.90;84.30;;;;;;7393323;19;20027;-82
2023/10/03 21:02:00;;;;;;;8.52;2.88;;;18.90;84.60;;;;;;7395601;19;20050;-81
2023/10/03 21:04:30;;;;;;;9.57;3.15;;;18.90;84.70;;;;;;7390605;19;20035;-80
2023/10/03 21:07:12;;;;;;;9.77;3.28;;;18.80;84.90;;;;;;7393322;19;20007;-81